Terminal Aerodrome Forecast
Issued by NWS Tallahassee, FL

Home | Current Version | Previous Version | Text Only | Print | Product List | Glossary On
Versions: 1 2 3 4 5 6 7 8 9 10 11 12 13
484
FTUS42 KTAE 201120
TAFTLH
TAF
KTLH 201120Z 2012/2112 19003KT P6SM SCT250
     FM201500 03003KT P6SM SCT250
     FM201800 12005KT P6SM VCTS BKN050CB
     FM210000 16003KT P6SM SCT250=

USA.gov is the U.S. government's official web portal to all federal, state and local government web resources and services.